createdAt,value
2023-02-23T00:00:44.916Z,1.00
2023-02-23T00:01:47.258Z,1.00
2023-02-23T00:02:50.492Z,1.00
2023-02-23T00:03:56.286Z,1.00
2023-02-23T00:05:39.918Z,1.00
2023-02-23T00:06:42.681Z,1.00
2023-02-23T00:07:45.731Z,1.00
2023-02-23T00:08:48.227Z,1.00
2023-02-23T00:09:51.038Z,1.00
2023-02-23T00:10:58.565Z,1.00
2023-02-23T00:12:07.612Z,1.00
2023-02-23T00:13:12.406Z,1.00
2023-02-23T00:14:15.456Z,1.00
2023-02-23T00:15:17.991Z,1.00
2023-02-23T00:16:22.740Z,1.00
2023-02-23T00:17:25.199Z,1.00
2023-02-23T00:18:30.236Z,1.00
2023-02-23T00:19:33.688Z,1.00
2023-02-23T00:20:36.138Z,1.00
2023-02-23T00:21:39.062Z,1.00
2023-02-23T00:22:42.163Z,1.00
2023-02-23T00:23:52.184Z,1.00
2023-02-23T00:24:54.578Z,1.00
2023-02-23T00:25:59.580Z,1.00
2023-02-23T00:27:06.283Z,1.00
2023-02-23T00:28:08.664Z,1.00
2023-02-23T00:29:17.447Z,1.00
2023-02-23T00:30:20.419Z,1.00
2023-02-23T00:31:27.875Z,1.00
2023-02-23T00:32:30.507Z,1.00
2023-02-23T00:33:34.816Z,1.00
2023-02-23T00:34:37.274Z,1.00
2023-02-23T00:35:39.635Z,1.00
2023-02-23T00:36:43.069Z,1.00
2023-02-23T00:37:49.353Z,1.00
2023-02-23T00:38:56.517Z,1.00
2023-02-23T00:39:58.905Z,1.00
2023-02-23T00:41:06.212Z,1.00
2023-02-23T00:42:08.706Z,1.00
2023-02-23T00:43:11.080Z,1.00
2023-02-23T00:44:15.421Z,1.00
2023-02-23T00:45:20.448Z,1.00
2023-02-23T00:46:24.593Z,1.00
2023-02-23T00:47:26.992Z,1.00
2023-02-23T00:48:29.321Z,1.00
2023-02-23T00:49:32.873Z,1.00
2023-02-23T00:50:35.257Z,1.00
2023-02-23T00:51:37.853Z,1.00
2023-02-23T00:52:41.427Z,1.00
2023-02-23T00:53:44.692Z,1.00
2023-02-23T00:54:47.084Z,1.00
2023-02-23T00:55:49.444Z,1.00
2023-02-23T00:56:51.945Z,1.00
2023-02-23T00:57:54.321Z,1.00
2023-02-23T00:58:57.358Z,1.00
2023-02-23T00:59:59.731Z,1.00
2023-02-23T01:01:02.332Z,1.00
2023-02-23T01:02:04.695Z,1.00
2023-02-23T01:03:07.114Z,1.00
2023-02-23T01:04:10.837Z,1.00
2023-02-23T01:05:13.791Z,1.00
2023-02-23T01:06:17.557Z,1.00
2023-02-23T01:07:19.949Z,1.00
2023-02-23T01:08:22.450Z,1.00
2023-02-23T01:09:28.488Z,1.00
2023-02-23T01:10:31.013Z,1.00
2023-02-23T01:11:35.475Z,1.00
2023-02-23T01:12:37.861Z,1.00
2023-02-23T01:13:42.724Z,1.00
2023-02-23T01:14:46.494Z,1.00
2023-02-23T01:15:49.671Z,1.00
2023-02-23T01:16:52.165Z,1.00
2023-02-23T01:17:54.525Z,1.00
2023-02-23T01:18:59.554Z,1.00
2023-02-23T01:20:01.964Z,1.00
2023-02-23T01:21:05.591Z,1.00
2023-02-23T01:22:07.951Z,1.00
2023-02-23T01:23:12.886Z,1.00
2023-02-23T01:24:15.289Z,1.00
2023-02-23T01:25:18.884Z,1.00
2023-02-23T01:26:24.205Z,1.00
2023-02-23T01:27:26.599Z,1.00
2023-02-23T01:28:28.974Z,1.00
2023-02-23T01:29:31.372Z,1.00
2023-02-23T01:30:33.964Z,1.00
2023-02-23T01:31:38.970Z,1.00
2023-02-23T01:32:41.726Z,1.00
2023-02-23T01:33:44.156Z,1.00
2023-02-23T01:34:46.581Z,1.00
2023-02-23T01:36:01.154Z,1.00
2023-02-23T01:37:03.579Z,1.00
2023-02-23T01:38:06.263Z,1.00
2023-02-23T01:39:15.487Z,1.00
2023-02-23T01:40:30.482Z,1.00
2023-02-23T01:41:33.477Z,1.00
2023-02-23T01:42:39.901Z,1.00
2023-02-23T01:44:08.213Z,1.00
2023-02-23T01:45:37.780Z,1.00
2023-02-23T01:46:43.740Z,1.00
2023-02-23T01:47:46.276Z,1.00
2023-02-23T01:48:48.893Z,1.00
2023-02-23T01:49:51.652Z,1.00
2023-02-23T01:51:13.458Z,1.00
2023-02-23T01:52:17.522Z,2.00
2023-02-23T01:53:23.795Z,2.00
2023-02-23T01:54:32.595Z,2.00
2023-02-23T01:55:36.052Z,2.00
2023-02-23T01:56:44.585Z,2.00
2023-02-23T01:57:47.293Z,2.00
2023-02-23T01:58:52.607Z,2.00
2023-02-23T01:59:56.126Z,2.00
2023-02-23T02:01:02.657Z,2.00
2023-02-23T02:02:07.880Z,2.00
2023-02-23T02:03:17.972Z,2.00
2023-02-23T02:04:21.866Z,2.00
2023-02-23T02:05:25.960Z,2.00
2023-02-23T02:06:29.230Z,2.00
2023-02-23T02:07:35.349Z,2.00
2023-02-23T02:08:44.999Z,2.00
2023-02-23T02:10:07.447Z,2.00
2023-02-23T02:11:26.004Z,2.00
2023-02-23T02:12:28.508Z,2.00
2023-02-23T02:13:32.639Z,2.00
2023-02-23T02:14:36.738Z,2.00
2023-02-23T02:15:53.873Z,2.00
2023-02-23T02:17:14.601Z,2.00
2023-02-23T02:18:31.622Z,2.00
2023-02-23T02:20:12.706Z,2.00
2023-02-23T02:22:00.762Z,2.00
2023-02-23T02:23:21.481Z,2.00
2023-02-23T02:25:04.602Z,2.00
2023-02-23T02:26:09.957Z,2.00
2023-02-23T02:27:26.665Z,2.00
2023-02-23T02:28:50.638Z,2.00
2023-02-23T02:30:47.007Z,2.00
2023-02-23T02:32:11.176Z,2.00
2023-02-23T02:33:19.752Z,2.00
2023-02-23T02:34:43.695Z,2.00
2023-02-23T02:35:54.841Z,2.00
2023-02-23T02:37:34.517Z,2.00
2023-02-23T02:39:10.450Z,2.00
2023-02-23T02:40:24.586Z,2.00
2023-02-23T02:41:53.471Z,2.00
2023-02-23T02:43:21.233Z,2.00
2023-02-23T02:44:32.747Z,2.00
2023-02-23T02:45:45.755Z,2.00
2023-02-23T02:46:54.067Z,2.00
2023-02-23T02:48:11.499Z,2.00
2023-02-23T02:49:26.717Z,2.00
2023-02-23T02:50:41.126Z,2.00
2023-02-23T02:52:01.780Z,2.00
2023-02-23T02:53:20.696Z,2.00
2023-02-23T02:54:38.635Z,2.00
2023-02-23T02:55:43.985Z,2.00
2023-02-23T02:56:47.345Z,2.00
2023-02-23T02:57:53.151Z,2.00
2023-02-23T02:58:56.001Z,2.00
2023-02-23T03:00:16.968Z,2.00
2023-02-23T03:01:37.877Z,2.00
2023-02-23T03:03:00.129Z,2.00
2023-02-23T03:04:40.593Z,2.00
2023-02-23T03:06:08.464Z,2.00
2023-02-23T03:07:41.782Z,2.00
2023-02-23T03:09:09.852Z,2.00
2023-02-23T03:10:50.006Z,2.00
2023-02-23T03:12:43.114Z,2.00
2023-02-23T03:14:32.152Z,2.00
2023-02-23T03:16:03.319Z,2.00
2023-02-23T03:17:46.116Z,2.00
2023-02-23T03:19:12.805Z,2.00
2023-02-23T03:20:45.541Z,2.00
2023-02-23T03:22:26.482Z,2.00
2023-02-23T03:24:03.758Z,2.00
2023-02-23T03:25:38.527Z,2.00
2023-02-23T03:26:59.929Z,2.00
2023-02-23T03:28:33.135Z,2.00
2023-02-23T03:30:17.753Z,2.00
2023-02-23T03:31:54.747Z,2.00
2023-02-23T03:33:19.917Z,2.00
2023-02-23T03:34:49.701Z,2.00
2023-02-23T03:36:29.292Z,2.00
2023-02-23T03:37:57.664Z,2.00
2023-02-23T03:39:41.306Z,2.00
2023-02-23T03:41:05.613Z,2.00
2023-02-23T03:42:32.030Z,2.00
2023-02-23T03:43:58.368Z,2.00
2023-02-23T03:45:25.504Z,2.00
2023-02-23T03:46:48.985Z,2.00
2023-02-23T03:48:12.753Z,2.00
2023-02-23T03:49:36.075Z,2.00
2023-02-23T03:51:00.349Z,2.00
2023-02-23T03:52:37.834Z,2.00
2023-02-23T03:54:08.646Z,2.00
2023-02-23T03:55:37.192Z,2.00
2023-02-23T03:57:01.305Z,2.00
2023-02-23T03:58:27.660Z,2.00
2023-02-23T03:59:54.014Z,2.00
2023-02-23T04:01:18.012Z,2.00
2023-02-23T04:02:41.284Z,2.00
2023-02-23T04:04:03.897Z,2.00
2023-02-23T04:05:29.490Z,2.00
2023-02-23T04:06:55.650Z,2.00
2023-02-23T04:08:19.716Z,2.00
2023-02-23T04:09:40.864Z,2.00
2023-02-23T04:11:21.317Z,3.00
2023-02-23T04:13:10.246Z,3.00
2023-02-23T04:14:40.208Z,3.00
2023-02-23T04:15:53.244Z,3.00
2023-02-23T04:16:57.509Z,3.00
2023-02-23T04:18:00.230Z,3.00
2023-02-23T04:19:02.622Z,3.00
2023-02-23T04:20:07.173Z,3.00
2023-02-23T04:21:09.600Z,3.00
2023-02-23T04:22:11.971Z,3.00
2023-02-23T04:23:14.452Z,3.00
2023-02-23T04:24:16.845Z,3.00
2023-02-23T04:25:23.007Z,3.00
2023-02-23T04:26:25.451Z,3.00
2023-02-23T04:27:27.850Z,3.00
2023-02-23T04:28:30.209Z,3.00
2023-02-23T04:29:32.598Z,3.00
2023-02-23T04:30:35.000Z,3.00
2023-02-23T04:31:37.412Z,3.00
2023-02-23T04:32:40.050Z,3.00
2023-02-23T04:33:42.467Z,2.17
2023-02-23T04:34:45.090Z,2.00
2023-02-23T04:35:47.813Z,2.00
2023-02-23T04:36:51.410Z,2.00
2023-02-23T04:37:53.893Z,2.00
2023-02-23T04:38:56.353Z,2.00
2023-02-23T04:39:58.707Z,2.00
2023-02-23T04:41:01.162Z,2.00
2023-02-23T04:42:03.560Z,2.00
2023-02-23T04:43:06.013Z,2.00
2023-02-23T04:44:08.633Z,2.00
2023-02-23T04:45:11.355Z,2.00
2023-02-23T04:46:13.880Z,2.00
2023-02-23T04:47:16.536Z,2.00
2023-02-23T04:48:19.009Z,2.00
2023-02-23T04:49:21.409Z,2.00
2023-02-23T04:50:23.838Z,2.00
2023-02-23T04:51:30.816Z,2.00
2023-02-23T04:52:35.081Z,2.00
2023-02-23T04:53:38.368Z,2.00
2023-02-23T04:54:41.289Z,2.00
2023-02-23T04:55:43.661Z,2.00
2023-02-23T04:56:46.080Z,2.00
2023-02-23T04:57:48.820Z,2.00
2023-02-23T04:58:51.194Z,2.00
2023-02-23T04:59:53.549Z,2.00
2023-02-23T05:00:55.881Z,2.00
2023-02-23T05:01:58.629Z,2.00
2023-02-23T05:03:01.018Z,2.00
2023-02-23T05:04:03.394Z,2.00
2023-02-23T05:05:07.605Z,2.00
2023-02-23T05:06:10.665Z,2.00
2023-02-23T05:07:13.209Z,2.00
2023-02-23T05:08:15.659Z,2.00
2023-02-23T05:09:18.046Z,2.00
2023-02-23T05:10:20.649Z,2.00
2023-02-23T05:11:23.184Z,2.00
2023-02-23T05:12:25.674Z,2.00
2023-02-23T05:13:28.068Z,2.00
2023-02-23T05:14:30.465Z,2.00
2023-02-23T05:15:32.801Z,2.00
2023-02-23T05:16:35.118Z,2.00
2023-02-23T05:17:39.075Z,2.00
2023-02-23T05:18:41.414Z,2.00
2023-02-23T05:19:43.769Z,2.00
2023-02-23T05:20:46.184Z,2.00
2023-02-23T05:21:50.492Z,2.00
2023-02-23T05:22:52.857Z,2.00
2023-02-23T05:23:55.187Z,2.00
2023-02-23T05:24:57.675Z,2.00
2023-02-23T05:26:02.352Z,2.00
2023-02-23T05:27:04.689Z,2.00
2023-02-23T05:28:07.650Z,2.00
2023-02-23T05:29:09.980Z,2.00
2023-02-23T05:30:12.653Z,2.00
2023-02-23T05:31:15.450Z,2.00
2023-02-23T05:32:18.160Z,2.00
2023-02-23T05:33:21.923Z,2.00
2023-02-23T05:34:24.425Z,2.00
2023-02-23T05:35:26.826Z,2.00
2023-02-23T05:36:29.240Z,2.00
2023-02-23T05:37:31.622Z,2.00
2023-02-23T05:38:34.429Z,2.00
2023-02-23T05:39:36.754Z,2.00
2023-02-23T05:40:39.954Z,2.00
2023-02-23T05:41:42.326Z,2.00
2023-02-23T05:42:45.232Z,2.00
2023-02-23T05:43:51.224Z,2.00
2023-02-23T05:44:53.629Z,2.00
2023-02-23T05:45:56.943Z,2.00
2023-02-23T05:46:59.688Z,2.00
2023-02-23T05:48:02.162Z,2.00
2023-02-23T05:49:04.888Z,2.00
2023-02-23T05:50:10.139Z,2.00
2023-02-23T05:51:14.408Z,2.00
2023-02-23T05:52:16.767Z,2.00
2023-02-23T05:53:19.124Z,2.00
2023-02-23T05:54:21.498Z,2.00
2023-02-23T05:55:24.536Z,2.00
2023-02-23T05:56:27.926Z,2.00
2023-02-23T05:57:30.295Z,2.00
2023-02-23T05:58:32.697Z,2.00
2023-02-23T05:59:35.090Z,2.00
2023-02-23T06:00:37.455Z,2.00
2023-02-23T06:01:40.397Z,2.00
2023-02-23T06:02:42.856Z,2.00
2023-02-23T06:03:46.107Z,2.00
2023-02-23T06:04:48.532Z,2.00
2023-02-23T06:05:55.488Z,2.00
2023-02-23T06:06:59.054Z,2.00
2023-02-23T06:08:01.859Z,2.00
2023-02-23T06:09:05.003Z,2.00
2023-02-23T06:10:07.876Z,2.00
2023-02-23T06:11:10.452Z,2.00
2023-02-23T06:12:12.881Z,2.00
2023-02-23T06:13:15.508Z,2.00
2023-02-23T06:14:17.935Z,2.00
2023-02-23T06:15:20.260Z,2.00
2023-02-23T06:16:22.728Z,2.00
2023-02-23T06:17:25.265Z,2.00
2023-02-23T06:18:28.593Z,2.00
2023-02-23T06:19:31.793Z,2.00
2023-02-23T06:20:34.121Z,2.00
2023-02-23T06:21:36.531Z,2.00
2023-02-23T06:22:39.429Z,2.00
2023-02-23T06:23:42.084Z,2.00
2023-02-23T06:24:46.077Z,2.00
2023-02-23T06:25:48.568Z,2.00
2023-02-23T06:26:51.226Z,2.00
2023-02-23T06:27:54.861Z,2.00
2023-02-23T06:28:57.331Z,2.00
2023-02-23T06:29:59.764Z,2.00
2023-02-23T06:31:02.417Z,2.00
2023-02-23T06:32:05.301Z,2.00
2023-02-23T06:33:08.056Z,2.00
2023-02-23T06:34:11.578Z,2.00
2023-02-23T06:35:14.395Z,2.00
2023-02-23T06:36:18.372Z,2.00
2023-02-23T06:37:22.543Z,2.83
2023-02-23T06:38:25.332Z,2.67
2023-02-23T06:39:27.970Z,2.00
2023-02-23T06:40:31.910Z,2.00
2023-02-23T06:41:36.197Z,2.00
2023-02-23T06:42:38.735Z,2.00
2023-02-23T06:43:41.499Z,2.00
2023-02-23T06:44:45.635Z,2.00
2023-02-23T06:45:48.204Z,2.00
2023-02-23T06:46:50.721Z,2.00
2023-02-23T06:47:53.842Z,2.00
2023-02-23T06:48:57.109Z,2.00
2023-02-23T06:50:01.258Z,2.00
2023-02-23T06:51:10.779Z,2.00
2023-02-23T06:52:15.438Z,2.00
2023-02-23T06:53:20.921Z,2.00
2023-02-23T06:54:23.814Z,2.00
2023-02-23T06:55:26.279Z,2.00
2023-02-23T06:56:31.267Z,3.00
2023-02-23T06:57:34.342Z,3.00
2023-02-23T06:58:38.485Z,3.00
2023-02-23T06:59:43.387Z,3.00
2023-02-23T07:00:49.349Z,3.00
2023-02-23T07:03:49.896Z,3.00
2023-02-23T07:07:50.944Z,3.00
2023-02-23T07:08:54.391Z,3.00
2023-02-23T07:09:56.881Z,3.00
2023-02-23T07:11:14.004Z,3.00
2023-02-23T07:12:16.493Z,3.00
2023-02-23T07:13:20.504Z,3.00
2023-02-23T07:14:26.997Z,3.00
2023-02-23T07:15:29.877Z,3.00
2023-02-23T07:16:32.344Z,3.00
2023-02-23T07:17:34.759Z,3.00
2023-02-23T07:18:37.126Z,3.00
2023-02-23T07:19:39.592Z,3.00
2023-02-23T07:20:42.035Z,3.00
2023-02-23T07:21:44.543Z,3.00
2023-02-23T07:22:46.865Z,3.00
2023-02-23T07:23:49.836Z,3.00
2023-02-23T07:24:52.254Z,3.00
2023-02-23T07:25:56.652Z,3.00
2023-02-23T07:26:59.099Z,2.50
2023-02-23T07:28:02.033Z,2.00
2023-02-23T07:29:04.444Z,2.83
2023-02-23T07:30:07.653Z,2.67
2023-02-23T07:31:10.368Z,3.00
2023-02-23T07:32:12.929Z,3.00
2023-02-23T07:33:16.440Z,3.00
2023-02-23T07:34:21.863Z,3.00
2023-02-23T07:35:24.380Z,3.00
2023-02-23T07:36:26.809Z,3.00
2023-02-23T07:37:29.348Z,2.50
2023-02-23T07:38:31.785Z,2.67
2023-02-23T07:39:34.241Z,3.00
2023-02-23T07:40:36.624Z,2.50
2023-02-23T07:41:39.562Z,2.00
2023-02-23T07:42:41.982Z,2.00
2023-02-23T07:43:44.512Z,2.00
2023-02-23T07:44:47.004Z,2.00
2023-02-23T07:45:51.332Z,2.00
2023-02-23T07:46:58.175Z,2.83
2023-02-23T07:48:26.224Z,3.00
2023-02-23T07:49:36.115Z,3.00
2023-02-23T07:50:45.210Z,3.00
2023-02-23T07:52:00.773Z,2.50
2023-02-23T07:53:12.073Z,2.00
2023-02-23T07:54:16.865Z,2.00
2023-02-23T07:55:26.940Z,2.00
2023-02-23T07:56:32.079Z,2.00
2023-02-23T07:57:36.644Z,2.00
2023-02-23T07:58:44.304Z,2.00
2023-02-23T07:59:48.703Z,2.00
2023-02-23T08:00:51.258Z,2.00
2023-02-23T08:01:53.802Z,2.00
2023-02-23T08:02:56.206Z,2.00
2023-02-23T08:03:58.705Z,2.00
2023-02-23T08:05:01.189Z,2.00
2023-02-23T08:06:03.621Z,2.00
2023-02-23T08:07:06.864Z,2.00
2023-02-23T08:08:09.253Z,2.00
2023-02-23T08:09:12.115Z,2.00
2023-02-23T08:10:14.526Z,2.00
2023-02-23T08:11:17.188Z,2.00
2023-02-23T08:12:19.897Z,2.00
2023-02-23T08:13:22.276Z,2.00
2023-02-23T08:14:24.882Z,2.00
2023-02-23T08:15:27.302Z,2.00
2023-02-23T08:16:32.550Z,2.00
2023-02-23T08:17:38.215Z,2.00
2023-02-23T08:18:40.698Z,2.00
2023-02-23T08:19:43.156Z,2.00
2023-02-23T08:20:45.553Z,2.00
2023-02-23T08:21:47.957Z,2.00
2023-02-23T08:22:54.668Z,2.00
2023-02-23T08:23:58.023Z,2.00
2023-02-23T08:25:00.509Z,2.00
2023-02-23T08:26:03.337Z,2.00
2023-02-23T08:27:05.751Z,2.00
2023-02-23T08:28:08.118Z,2.33
2023-02-23T08:29:10.693Z,3.00
2023-02-23T08:30:14.246Z,3.00
2023-02-23T08:31:21.557Z,3.00
2023-02-23T08:32:24.219Z,3.00
2023-02-23T08:33:26.645Z,3.00
2023-02-23T08:34:29.301Z,3.00
2023-02-23T08:35:31.724Z,3.00
2023-02-23T08:36:34.125Z,3.00
2023-02-23T08:37:36.800Z,3.00
2023-02-23T08:38:39.190Z,3.00
2023-02-23T08:39:43.576Z,3.00
2023-02-23T08:40:46.136Z,3.00
2023-02-23T08:41:48.828Z,3.00
2023-02-23T08:42:54.176Z,3.00
2023-02-23T08:44:19.682Z,3.00
2023-02-23T08:45:28.533Z,3.00
2023-02-23T08:46:44.683Z,3.00
2023-02-23T08:48:14.764Z,3.00
2023-02-23T08:49:17.363Z,3.00
2023-02-23T08:50:20.032Z,3.00
2023-02-23T08:51:22.847Z,3.00
2023-02-23T08:52:25.685Z,3.00
2023-02-23T08:53:29.926Z,3.00
2023-02-23T08:54:32.355Z,3.00
2023-02-23T08:55:36.375Z,3.00
2023-02-23T08:56:39.130Z,3.00
2023-02-23T08:57:41.476Z,3.00
2023-02-23T08:58:44.249Z,3.00
2023-02-23T08:59:47.502Z,3.00
2023-02-23T09:00:50.081Z,3.00
2023-02-23T09:01:52.691Z,3.00
2023-02-23T09:02:55.118Z,3.00
2023-02-23T09:03:57.570Z,2.67
2023-02-23T09:05:00.057Z,2.00
2023-02-23T09:06:11.566Z,2.00
2023-02-23T09:07:17.025Z,2.00
2023-02-23T09:08:19.933Z,2.00
2023-02-23T09:09:22.287Z,2.00
2023-02-23T09:10:27.783Z,2.00
2023-02-23T09:11:30.210Z,2.00
2023-02-23T09:12:32.586Z,2.00
2023-02-23T09:13:36.157Z,2.00
2023-02-23T09:14:38.639Z,2.00
2023-02-23T09:15:41.162Z,2.00
2023-02-23T09:16:45.094Z,2.00
2023-02-23T09:17:48.435Z,2.00
2023-02-23T09:18:50.942Z,2.00
2023-02-23T09:19:53.690Z,2.00
2023-02-23T09:20:56.391Z,2.00
2023-02-23T09:21:58.725Z,2.00
2023-02-23T09:23:01.220Z,2.00
2023-02-23T09:24:03.835Z,2.00
2023-02-23T09:25:06.841Z,2.00
2023-02-23T09:26:09.224Z,2.00
2023-02-23T09:27:14.914Z,2.00
2023-02-23T09:28:19.620Z,2.00
2023-02-23T09:29:24.797Z,2.00
2023-02-23T09:30:28.022Z,2.00
2023-02-23T09:31:30.683Z,2.00
2023-02-23T09:32:33.797Z,2.00
2023-02-23T09:33:36.786Z,2.00
2023-02-23T09:34:39.284Z,2.00
2023-02-23T09:35:41.843Z,2.00
2023-02-23T09:37:06.729Z,2.00
2023-02-23T09:38:15.720Z,2.00
2023-02-23T09:41:56.693Z,2.00
2023-02-23T09:43:41.278Z,2.00
2023-02-23T09:45:05.768Z,2.00
2023-02-23T09:48:04.741Z,2.00
2023-02-23T09:50:34.650Z,2.00
2023-02-23T09:51:43.219Z,2.00
2023-02-23T09:52:53.245Z,2.00
2023-02-23T09:56:15.852Z,2.00
2023-02-23T09:57:38.387Z,2.00
2023-02-23T09:58:40.859Z,2.00
2023-02-23T09:59:44.078Z,2.00
2023-02-23T10:00:55.010Z,2.00
2023-02-23T10:02:00.050Z,2.00
2023-02-23T10:03:02.515Z,2.00
2023-02-23T10:04:07.779Z,2.00
2023-02-23T10:05:13.233Z,2.00
2023-02-23T10:06:17.946Z,2.00
2023-02-23T10:07:24.974Z,2.00
2023-02-23T10:08:47.542Z,2.00
2023-02-23T10:10:08.618Z,2.00
2023-02-23T10:11:22.977Z,2.00
2023-02-23T10:12:59.115Z,2.00
2023-02-23T10:14:26.485Z,2.00
2023-02-23T10:15:46.596Z,2.00
2023-02-23T10:16:52.229Z,2.00
2023-02-23T10:18:12.596Z,2.00
2023-02-23T10:19:19.054Z,2.00
2023-02-23T10:20:43.014Z,2.00
2023-02-23T10:21:54.950Z,2.00
2023-02-23T10:23:03.942Z,2.00
2023-02-23T10:24:13.304Z,2.00
2023-02-23T10:25:24.392Z,2.00
2023-02-23T10:26:39.984Z,2.00
2023-02-23T10:27:46.155Z,2.00
2023-02-23T10:28:48.953Z,2.00
2023-02-23T10:29:54.936Z,2.00
2023-02-23T10:30:58.494Z,2.00
2023-02-23T10:32:32.289Z,2.00
2023-02-23T10:33:46.882Z,2.00
2023-02-23T10:35:17.853Z,2.00
2023-02-23T10:36:50.680Z,2.00
2023-02-23T10:38:04.609Z,2.00
2023-02-23T10:39:51.835Z,2.00
2023-02-23T10:40:59.941Z,2.00
2023-02-23T10:44:57.041Z,2.00
2023-02-23T10:48:23.511Z,2.00
2023-02-23T10:51:44.424Z,2.00
2023-02-23T10:53:17.524Z,2.00
2023-02-23T10:54:39.924Z,2.00
2023-02-23T10:55:45.374Z,2.00
2023-02-23T10:56:47.810Z,2.00
2023-02-23T10:57:54.164Z,2.00
2023-02-23T10:58:58.807Z,2.00
2023-02-23T11:00:04.360Z,2.00
2023-02-23T11:01:06.751Z,2.00
2023-02-23T11:02:23.101Z,2.00
2023-02-23T11:03:28.778Z,2.00
2023-02-23T11:04:34.879Z,2.00
2023-02-23T11:05:46.544Z,2.00
2023-02-23T11:06:50.733Z,2.00
2023-02-23T11:08:12.208Z,2.00
2023-02-23T11:09:45.848Z,2.00
2023-02-23T11:11:01.619Z,2.00
2023-02-23T11:12:16.908Z,2.00
2023-02-23T11:13:24.144Z,2.00
2023-02-23T11:14:28.976Z,2.00
2023-02-23T11:15:49.435Z,2.00
2023-02-23T11:16:58.005Z,2.00
2023-02-23T11:18:02.917Z,2.00
2023-02-23T11:19:09.483Z,2.00
2023-02-23T11:20:17.833Z,2.00
2023-02-23T11:21:36.953Z,2.00
2023-02-23T11:22:41.562Z,2.00
2023-02-23T11:23:44.296Z,2.00
2023-02-23T11:24:46.999Z,2.00
2023-02-23T11:25:53.147Z,2.00
2023-02-23T11:27:00.553Z,2.00
2023-02-23T11:28:03.807Z,2.00
2023-02-23T11:29:22.625Z,2.00
2023-02-23T11:30:30.548Z,2.00
2023-02-23T11:31:35.620Z,2.00
2023-02-23T11:32:44.448Z,2.00
2023-02-23T11:33:48.407Z,2.00
2023-02-23T11:35:31.633Z,2.00
2023-02-23T11:36:36.751Z,2.00
2023-02-23T11:37:39.305Z,2.00
2023-02-23T11:38:41.773Z,2.00
2023-02-23T11:39:57.465Z,2.00
2023-02-23T11:41:07.333Z,2.00
2023-02-23T11:42:25.500Z,2.00
2023-02-23T11:43:28.053Z,2.00
2023-02-23T11:44:30.550Z,2.00
2023-02-23T11:45:39.353Z,2.00
2023-02-23T11:46:45.941Z,2.00
2023-02-23T11:47:56.685Z,2.00
2023-02-23T11:49:04.360Z,2.00
2023-02-23T11:50:07.429Z,1.50
2023-02-23T11:51:10.283Z,1.00
2023-02-23T11:52:16.086Z,1.00
2023-02-23T11:53:24.768Z,1.00
2023-02-23T11:54:33.470Z,1.00
2023-02-23T11:55:37.443Z,1.00
2023-02-23T11:56:39.836Z,1.00
2023-02-23T11:57:43.257Z,1.00
2023-02-23T11:59:08.427Z,1.00
2023-02-23T12:00:20.804Z,1.00
2023-02-23T12:01:35.438Z,1.00
2023-02-23T12:02:52.114Z,1.00
2023-02-23T12:03:57.473Z,1.00
2023-02-23T12:05:17.661Z,1.00
2023-02-23T12:06:40.806Z,1.00
2023-02-23T12:08:01.863Z,1.00
2023-02-23T12:09:13.084Z,1.00
2023-02-23T12:10:44.865Z,1.00
2023-02-23T12:11:53.923Z,1.00
2023-02-23T12:13:08.060Z,1.00
2023-02-23T12:14:31.712Z,2.00
2023-02-23T12:15:40.154Z,2.00
2023-02-23T12:16:48.624Z,2.00
2023-02-23T12:18:00.472Z,2.00
2023-02-23T12:19:11.943Z,2.00
2023-02-23T12:20:38.298Z,2.00
2023-02-23T12:22:05.214Z,2.00
2023-02-23T12:23:13.954Z,2.00
2023-02-23T12:24:34.342Z,2.00
2023-02-23T12:25:57.020Z,2.00
2023-02-23T12:27:13.951Z,2.00
2023-02-23T12:28:38.348Z,2.00
2023-02-23T12:30:19.109Z,2.00
2023-02-23T12:31:43.179Z,2.00
2023-02-23T12:32:54.175Z,2.00
2023-02-23T12:34:04.648Z,2.00
2023-02-23T12:35:13.081Z,2.00
2023-02-23T12:36:38.557Z,2.00
2023-02-23T12:37:49.590Z,2.00
2023-02-23T12:39:10.724Z,2.00
2023-02-23T12:40:29.368Z,2.00
2023-02-23T12:41:56.848Z,1.33
2023-02-23T12:43:17.442Z,1.00
2023-02-23T12:44:43.076Z,1.00
2023-02-23T12:45:50.887Z,1.00
2023-02-23T12:46:55.328Z,1.00
2023-02-23T12:48:39.256Z,1.00
2023-02-23T12:49:45.649Z,1.00
2023-02-23T12:50:53.629Z,1.00
2023-02-23T12:52:06.821Z,1.00
2023-02-23T12:53:30.674Z,1.00
2023-02-23T12:54:33.061Z,1.00
2023-02-23T12:55:49.342Z,1.00
2023-02-23T12:57:23.884Z,1.00
2023-02-23T12:58:45.772Z,1.00
2023-02-23T12:59:56.735Z,1.00
2023-02-23T13:01:02.281Z,1.00
2023-02-23T13:02:15.790Z,1.00
2023-02-23T13:03:33.260Z,1.00
2023-02-23T13:04:48.347Z,1.00
2023-02-23T13:06:21.311Z,1.00
2023-02-23T13:07:50.276Z,1.00
2023-02-23T13:09:23.884Z,1.00
2023-02-23T13:10:45.233Z,1.00
2023-02-23T13:11:54.372Z,1.00
2023-02-23T13:13:16.601Z,1.00
2023-02-23T13:14:21.814Z,1.00
2023-02-23T13:15:36.611Z,1.00
2023-02-23T13:17:13.568Z,1.00
2023-02-23T13:19:02.075Z,1.00
2023-02-23T13:23:07.346Z,1.00
2023-02-23T13:24:27.885Z,1.00
2023-02-23T13:25:50.808Z,1.00
2023-02-23T13:31:36.007Z,1.00
2023-02-23T13:32:39.365Z,1.00
2023-02-23T13:33:44.310Z,1.00
2023-02-23T13:34:55.836Z,1.00
2023-02-23T13:36:01.421Z,1.00
2023-02-23T13:37:06.950Z,1.00
2023-02-23T13:38:20.059Z,1.00
2023-02-23T13:39:37.806Z,1.00
2023-02-23T13:40:54.807Z,1.00
2023-02-23T13:42:09.589Z,1.00
2023-02-23T13:43:47.578Z,1.00
2023-02-23T13:45:07.262Z,1.00
2023-02-23T13:46:12.148Z,1.00
2023-02-23T13:47:34.830Z,1.00
2023-02-23T13:48:55.626Z,1.00
2023-02-23T13:50:18.000Z,1.00
2023-02-23T13:51:32.541Z,1.00
2023-02-23T13:52:41.331Z,1.00
2023-02-23T13:53:47.155Z,1.00
2023-02-23T13:54:58.905Z,1.00
2023-02-23T13:56:07.010Z,1.00
2023-02-23T13:57:19.855Z,1.00
2023-02-23T13:58:30.894Z,1.00
2023-02-23T13:59:44.002Z,1.00
2023-02-23T14:00:54.624Z,1.00
2023-02-23T14:01:59.307Z,1.00
2023-02-23T14:03:06.502Z,1.00
2023-02-23T14:04:16.303Z,1.00
2023-02-23T14:05:20.304Z,1.00
2023-02-23T14:06:26.700Z,1.00
2023-02-23T14:07:31.514Z,1.00
2023-02-23T14:08:38.794Z,1.00
2023-02-23T14:10:05.080Z,1.00
2023-02-23T14:11:08.475Z,1.00
2023-02-23T14:12:12.153Z,1.00
2023-02-23T14:13:14.812Z,1.00
2023-02-23T14:14:33.147Z,1.00
2023-02-23T14:15:35.553Z,1.00
2023-02-23T14:16:37.914Z,1.00
2023-02-23T14:17:41.154Z,1.00
2023-02-23T14:19:07.117Z,1.00
2023-02-23T14:20:17.889Z,1.00
2023-02-23T14:21:31.730Z,1.00
2023-02-23T14:22:34.887Z,1.00
2023-02-23T14:24:06.196Z,1.00
2023-02-23T14:25:50.875Z,1.00
2023-02-23T14:27:12.746Z,1.00
2023-02-23T14:28:31.213Z,1.00
2023-02-23T14:29:44.224Z,1.00
2023-02-23T14:30:51.294Z,1.00
2023-02-23T14:32:17.366Z,1.00
2023-02-23T14:33:41.433Z,1.00
2023-02-23T14:34:49.671Z,1.00
2023-02-23T14:35:52.304Z,1.00
2023-02-23T14:36:55.800Z,1.00
2023-02-23T14:38:24.971Z,1.00
2023-02-23T14:39:29.169Z,1.00
2023-02-23T14:40:35.041Z,1.00
2023-02-23T14:41:50.310Z,1.00
2023-02-23T14:42:57.740Z,1.00
2023-02-23T14:44:29.574Z,1.00
2023-02-23T14:45:38.121Z,1.00
2023-02-23T14:46:50.432Z,1.00
2023-02-23T14:47:56.772Z,1.00
2023-02-23T14:49:11.862Z,1.00
2023-02-23T14:50:24.865Z,1.00
2023-02-23T14:51:48.612Z,1.00
2023-02-23T14:52:51.848Z,1.00
2023-02-23T14:53:58.793Z,1.00
2023-02-23T14:55:13.189Z,1.00
2023-02-23T14:56:20.686Z,1.00
2023-02-23T14:57:25.651Z,1.00
2023-02-23T14:58:35.626Z,1.00
2023-02-23T14:59:42.613Z,1.00
2023-02-23T15:00:45.311Z,1.00
2023-02-23T15:01:48.370Z,1.00
2023-02-23T15:03:12.903Z,1.00
2023-02-23T15:04:23.147Z,1.00
2023-02-23T15:05:34.591Z,1.00
2023-02-23T15:06:38.976Z,1.00
2023-02-23T15:07:42.375Z,1.00
2023-02-23T15:08:46.818Z,1.00
2023-02-23T15:09:50.433Z,1.00
2023-02-23T15:11:19.967Z,1.00
2023-02-23T15:12:31.549Z,1.00
2023-02-23T15:14:39.141Z,1.00
2023-02-23T15:15:45.934Z,1.00
2023-02-23T15:16:49.938Z,1.00
2023-02-23T15:17:59.087Z,1.00
2023-02-23T15:19:04.382Z,1.00
2023-02-23T15:20:16.422Z,1.00
2023-02-23T15:21:23.436Z,1.00
2023-02-23T15:22:27.152Z,1.00
2023-02-23T15:23:38.023Z,1.00
2023-02-23T15:24:43.697Z,1.00
2023-02-23T15:25:51.021Z,1.00
2023-02-23T15:26:55.401Z,1.00
2023-02-23T15:27:58.092Z,1.00
2023-02-23T15:29:16.478Z,1.00
2023-02-23T15:30:31.196Z,1.00
2023-02-23T15:31:36.770Z,1.00
2023-02-23T15:32:40.301Z,1.00
2023-02-23T15:33:43.246Z,1.00
2023-02-23T15:34:46.104Z,1.00
2023-02-23T15:35:58.014Z,1.00
2023-02-23T15:37:07.746Z,1.00
2023-02-23T15:38:18.174Z,1.00
2023-02-23T15:39:45.528Z,1.00
2023-02-23T15:40:54.214Z,1.00
2023-02-23T15:41:58.993Z,1.00
2023-02-23T15:43:01.726Z,1.00
2023-02-23T15:44:13.143Z,1.00
2023-02-23T15:45:37.644Z,1.00
2023-02-23T15:46:41.753Z,1.00
2023-02-23T15:47:44.361Z,1.00
2023-02-23T15:48:54.244Z,1.00
2023-02-23T15:50:36.550Z,1.33
2023-02-23T15:51:52.764Z,2.00
2023-02-23T15:58:07.501Z,1.00
2023-02-23T15:59:14.805Z,1.00
2023-02-23T16:00:32.527Z,1.00
2023-02-23T16:01:42.936Z,1.00
2023-02-23T16:02:49.113Z,1.00